createdAt,value
2022-11-07T00:00:50.573Z,93.80
2022-11-07T00:03:40.921Z,93.60
2022-11-07T00:06:11.346Z,94.20
2022-11-07T00:08:43.556Z,95.70
2022-11-07T00:11:11.352Z,96.10
2022-11-07T00:13:43.197Z,96.00
2022-11-07T00:16:17.430Z,95.50
2022-11-07T00:18:56.972Z,95.10
2022-11-07T00:24:27.801Z,96.40
2022-11-07T00:27:08.447Z,97.60
2022-11-07T00:29:42.703Z,95.60
2022-11-07T00:32:44.843Z,96.00
2022-11-07T00:35:26.223Z,95.00
2022-11-07T00:37:58.393Z,93.60
2022-11-07T00:40:42.225Z,95.40
2022-11-07T00:43:24.369Z,96.60
2022-11-07T00:46:07.082Z,94.20
2022-11-07T00:48:38.587Z,94.70
2022-11-07T00:51:14.288Z,94.50
2022-11-07T00:53:45.478Z,93.30
2022-11-07T00:56:24.859Z,96.30
2022-11-07T01:05:10.149Z,93.80
2022-11-07T01:07:46.547Z,94.30
2022-11-07T01:11:00.507Z,93.90
2022-11-07T01:13:36.611Z,94.40
2022-11-07T01:16:44.214Z,94.90
2022-11-07T01:20:01.211Z,93.90
2022-11-07T01:22:42.247Z,92.70
2022-11-07T01:26:08.697Z,94.80
2022-11-07T01:32:54.637Z,94.20
2022-11-07T01:41:01.328Z,93.30
2022-11-07T01:44:09.359Z,94.10
2022-11-07T01:50:27.053Z,93.70
2022-11-07T01:56:10.934Z,94.40
2022-11-07T02:02:56.409Z,92.90
2022-11-07T02:06:23.430Z,93.60
2022-11-07T02:09:40.711Z,94.00
2022-11-07T02:12:51.701Z,94.00
2022-11-07T02:15:44.223Z,93.30
2022-11-07T02:22:53.186Z,94.10
2022-11-07T03:10:45.759Z,93.40
2022-11-07T03:27:31.766Z,93.90
2022-11-07T03:30:09.647Z,95.40
2022-11-07T03:32:55.161Z,95.70
2022-11-07T04:03:01.949Z,92.90
2022-11-07T04:57:01.999Z,93.00
2022-11-07T05:15:33.170Z,94.40
2022-11-07T05:18:32.621Z,95.80
2022-11-07T05:21:12.967Z,94.90
2022-11-07T05:24:07.175Z,92.90
2022-11-07T05:26:47.608Z,96.90
2022-11-07T05:29:23.590Z,94.50
2022-11-07T05:32:14.275Z,96.50
2022-11-07T05:34:48.497Z,96.20
2022-11-07T05:40:21.709Z,96.10
2022-11-07T05:42:49.117Z,95.00
2022-11-07T05:49:30.250Z,96.00
2022-11-07T05:55:47.202Z,95.80
2022-11-07T05:58:20.224Z,94.40
2022-11-07T06:00:48.260Z,96.10
2022-11-07T06:03:17.018Z,94.20
2022-11-07T06:05:45.404Z,93.10
2022-11-07T06:08:13.903Z,94.10
2022-11-07T06:10:42.517Z,93.30
2022-11-07T06:13:18.854Z,93.10
2022-11-07T06:15:49.342Z,93.60
2022-11-07T06:18:20.945Z,95.00
2022-11-07T06:20:50.250Z,94.20
2022-11-07T06:24:15.368Z,94.90
2022-11-07T06:26:47.121Z,94.30
2022-11-07T06:29:14.640Z,96.50
2022-11-07T06:31:42.021Z,94.40
2022-11-07T06:34:09.437Z,93.40
2022-11-07T06:36:41.648Z,93.90
2022-11-07T06:39:10.451Z,93.80
2022-11-07T06:41:55.440Z,95.10
2022-11-07T06:44:52.189Z,94.30
2022-11-07T06:51:02.438Z,95.30
2022-11-07T06:53:33.281Z,93.90
2022-11-07T06:56:50.116Z,96.50
2022-11-07T07:03:22.509Z,94.10
2022-11-07T07:06:19.887Z,94.20
2022-11-07T07:09:08.624Z,95.10
2022-11-07T07:11:53.665Z,95.90
2022-11-07T07:15:27.822Z,92.50
2022-11-07T07:21:41.394Z,94.50
2022-11-07T07:24:23.585Z,96.10
2022-11-07T07:27:01.658Z,95.50
2022-11-07T07:29:35.876Z,94.80
2022-11-07T07:32:06.035Z,92.50
2022-11-07T07:34:33.549Z,95.30
2022-11-07T07:37:01.023Z,93.90
2022-11-07T07:39:33.416Z,93.80
2022-11-07T07:42:00.940Z,93.10
2022-11-07T07:44:28.313Z,93.00
2022-11-07T07:46:55.867Z,92.80
2022-11-07T07:49:23.531Z,92.90
2022-11-07T07:51:55.855Z,95.40
2022-11-07T07:54:23.517Z,94.50
2022-11-07T07:57:01.626Z,95.00
2022-11-07T07:59:29.298Z,92.20
2022-11-07T08:02:02.448Z,94.70
2022-11-07T08:04:32.696Z,94.70
2022-11-07T08:07:00.217Z,94.00
2022-11-07T08:09:29.131Z,94.90
2022-11-07T08:11:56.680Z,93.40
2022-11-07T08:14:24.412Z,93.50
2022-11-07T08:16:52.076Z,94.50
2022-11-07T08:19:19.959Z,95.00
2022-11-07T08:21:49.976Z,95.80
2022-11-07T08:24:17.454Z,95.00
2022-11-07T08:26:45.119Z,94.30
2022-11-07T08:29:12.766Z,95.40
2022-11-07T08:31:41.784Z,94.90
2022-11-07T08:34:16.706Z,92.50
2022-11-07T08:36:44.382Z,96.10
2022-11-07T08:39:12.127Z,93.90
2022-11-07T08:41:47.358Z,94.20
2022-11-07T08:44:14.915Z,92.90
2022-11-07T08:46:42.472Z,94.40
2022-11-07T08:49:10.111Z,93.20
2022-11-07T08:51:37.649Z,94.10
2022-11-07T08:54:05.540Z,92.90
2022-11-07T08:56:36.280Z,95.00
2022-11-07T08:59:03.917Z,95.20
2022-11-07T09:01:31.675Z,92.50
2022-11-07T09:03:59.445Z,94.10
2022-11-07T09:06:29.519Z,93.70
2022-11-07T09:08:57.075Z,92.60
2022-11-07T09:11:27.166Z,93.50
2022-11-07T09:13:55.907Z,92.40
2022-11-07T09:16:25.851Z,91.90
2022-11-07T09:18:53.635Z,92.40
2022-11-07T09:21:22.891Z,93.80
2022-11-07T09:23:53.331Z,93.30
2022-11-07T09:26:21.416Z,91.90
2022-11-07T09:28:52.288Z,93.60
2022-11-07T09:31:22.465Z,91.90
2022-11-07T09:33:50.078Z,91.30
2022-11-07T09:36:17.475Z,93.60
2022-11-07T09:38:45.019Z,91.50
2022-11-07T09:41:47.861Z,92.60
2022-11-07T09:44:37.508Z,91.10
2022-11-07T09:47:22.484Z,91.10
2022-11-07T09:50:00.680Z,90.60
2022-11-07T09:52:42.192Z,90.90
2022-11-07T09:55:12.782Z,90.90
2022-11-07T09:57:40.328Z,92.40
2022-11-07T10:00:15.311Z,94.00
2022-11-07T10:02:50.121Z,91.70
2022-11-07T10:05:44.745Z,91.70
2022-11-07T10:08:16.474Z,91.20
2022-11-07T10:10:58.855Z,90.90
2022-11-07T10:13:50.312Z,92.00
2022-11-07T10:17:10.799Z,91.10
2022-11-07T10:20:03.384Z,90.90
2022-11-07T10:23:05.036Z,90.90
2022-11-07T10:26:10.497Z,91.00
2022-11-07T10:28:45.878Z,90.80
2022-11-07T10:31:15.453Z,91.50
2022-11-07T10:33:53.921Z,90.80
2022-11-07T10:36:26.961Z,91.20
2022-11-07T10:38:54.626Z,91.30
2022-11-07T10:41:27.967Z,91.70
2022-11-07T10:44:02.488Z,91.90
2022-11-07T10:46:47.775Z,91.00
2022-11-07T10:49:23.232Z,90.80
2022-11-07T10:51:52.024Z,90.70
2022-11-07T10:54:21.883Z,90.60
2022-11-07T10:57:05.586Z,90.70
2022-11-07T11:00:20.230Z,90.50
2022-11-07T11:02:48.895Z,90.70
2022-11-07T11:05:25.913Z,90.40
2022-11-07T11:07:56.139Z,90.50
2022-11-07T11:10:31.056Z,90.60
2022-11-07T11:12:58.559Z,90.30
2022-11-07T11:15:32.734Z,91.30
2022-11-07T11:18:06.316Z,90.50
2022-11-07T11:20:36.344Z,90.60
2022-11-07T11:23:15.828Z,91.20
2022-11-07T11:25:45.659Z,90.90
2022-11-07T11:28:38.650Z,90.50
2022-11-07T11:31:12.977Z,91.20
2022-11-07T11:33:55.241Z,90.50
2022-11-07T11:36:27.987Z,90.90
2022-11-07T11:39:01.571Z,90.80
2022-11-07T11:41:35.798Z,91.40
2022-11-07T11:44:40.940Z,90.90
2022-11-07T11:47:35.059Z,90.30
2022-11-07T11:50:12.903Z,91.00
2022-11-07T11:52:43.348Z,90.30
2022-11-07T11:55:22.715Z,92.10
2022-11-07T11:58:28.501Z,90.50
2022-11-07T12:01:19.274Z,90.20
2022-11-07T12:04:01.185Z,91.00
2022-11-07T12:06:39.925Z,90.20
2022-11-07T12:09:19.584Z,90.70
2022-11-07T12:12:11.912Z,90.10
2022-11-07T12:14:58.069Z,90.10
2022-11-07T12:17:42.776Z,90.00
2022-11-07T12:20:39.472Z,90.10
2022-11-07T12:23:16.757Z,90.50
2022-11-07T12:25:57.519Z,90.70
2022-11-07T12:28:44.893Z,90.20
2022-11-07T12:31:44.507Z,90.20
2022-11-07T12:34:36.751Z,90.20
2022-11-07T12:37:24.471Z,90.10
2022-11-07T12:40:13.726Z,90.10
2022-11-07T12:43:04.746Z,90.10
2022-11-07T12:45:53.928Z,89.90
2022-11-07T12:48:21.265Z,89.90
2022-11-07T12:51:02.949Z,90.20
2022-11-07T12:53:47.839Z,90.00
2022-11-07T12:56:16.812Z,90.40
2022-11-07T12:58:46.269Z,90.20
2022-11-07T13:01:19.910Z,90.30
2022-11-07T13:04:05.506Z,90.00
2022-11-07T13:06:56.985Z,89.70
2022-11-07T13:09:41.073Z,90.10
2022-11-07T13:12:33.106Z,89.80
2022-11-07T13:15:02.676Z,89.70
2022-11-07T13:17:41.432Z,89.80
2022-11-07T13:20:21.178Z,89.80
2022-11-07T13:22:57.613Z,90.10
2022-11-07T13:25:33.533Z,90.00
2022-11-07T13:28:24.830Z,89.70
2022-11-07T13:30:59.441Z,89.50
2022-11-07T13:33:36.018Z,90.00
2022-11-07T13:36:26.680Z,90.00
2022-11-07T13:38:58.329Z,89.90
2022-11-07T13:41:25.801Z,90.00
2022-11-07T13:44:01.965Z,90.40
2022-11-07T13:46:37.563Z,90.90
2022-11-07T13:49:14.222Z,90.20
2022-11-07T13:51:45.621Z,89.70
2022-11-07T13:54:38.315Z,90.70
2022-11-07T13:57:19.793Z,89.40
2022-11-07T14:00:10.975Z,89.60
2022-11-07T14:02:51.470Z,89.60
2022-11-07T14:05:22.955Z,89.70
2022-11-07T14:07:59.817Z,89.50
2022-11-07T14:10:32.717Z,89.70
2022-11-07T14:13:07.249Z,89.40
2022-11-07T14:15:36.446Z,89.60
2022-11-07T14:18:04.962Z,89.50
2022-11-07T14:20:32.519Z,90.00
2022-11-07T14:23:01.330Z,90.30
2022-11-07T14:25:33.956Z,90.30
2022-11-07T14:28:02.000Z,89.40
2022-11-07T14:30:33.249Z,89.40
2022-11-07T14:33:02.650Z,90.70
2022-11-07T14:35:34.828Z,90.10
2022-11-07T14:38:18.131Z,90.40
2022-11-07T14:40:46.670Z,89.20
2022-11-07T14:43:18.009Z,91.70
2022-11-07T14:46:11.340Z,89.30
2022-11-07T14:48:36.560Z,90.00
2022-11-07T14:51:05.331Z,90.60
2022-11-07T14:53:56.381Z,90.80
2022-11-07T14:56:35.288Z,88.90
2022-11-07T14:59:03.255Z,89.00
2022-11-07T15:01:33.747Z,90.70
2022-11-07T15:04:17.075Z,90.00
2022-11-07T15:06:45.760Z,89.90
2022-11-07T15:09:13.352Z,89.50
2022-11-07T15:12:00.087Z,92.90
2022-11-07T15:14:36.042Z,89.50
2022-11-07T15:17:07.575Z,90.30
2022-11-07T15:19:36.273Z,90.80
2022-11-07T15:22:05.361Z,91.30
2022-11-07T15:24:42.357Z,90.80
2022-11-07T15:27:28.151Z,89.40
2022-11-07T15:30:01.311Z,90.20
2022-11-07T15:32:34.921Z,89.80
2022-11-07T15:35:37.775Z,90.30
2022-11-07T15:38:01.596Z,90.20
2022-11-07T15:40:31.268Z,90.30
2022-11-07T15:42:59.336Z,90.90
2022-11-07T15:45:26.998Z,92.20
2022-11-07T15:47:56.962Z,93.50
2022-11-07T15:50:25.484Z,92.50
2022-11-07T15:52:54.221Z,92.10
2022-11-07T15:55:23.742Z,90.30
2022-11-07T15:57:54.120Z,90.20
2022-11-07T16:00:23.703Z,90.60
2022-11-07T16:02:51.621Z,90.50
2022-11-07T16:05:19.215Z,91.00
2022-11-07T16:07:49.714Z,91.70
2022-11-07T16:10:28.231Z,91.80
2022-11-07T16:12:55.708Z,90.30
2022-11-07T16:15:25.328Z,91.80
2022-11-07T16:17:52.753Z,90.70
2022-11-07T16:20:22.802Z,91.90
2022-11-07T16:22:50.921Z,91.20
2022-11-07T16:25:22.625Z,92.70
2022-11-07T16:27:52.919Z,90.80
2022-11-07T16:30:24.237Z,91.60
2022-11-07T16:32:51.696Z,90.60
2022-11-07T16:35:19.232Z,92.00
2022-11-07T16:38:39.628Z,92.00
2022-11-07T16:41:22.219Z,90.80
2022-11-07T16:43:58.018Z,92.40
2022-11-07T16:46:26.962Z,91.70
2022-11-07T16:49:00.950Z,91.30
2022-11-07T16:51:28.385Z,90.80
2022-11-07T16:53:59.625Z,91.20
2022-11-07T16:56:36.215Z,92.30
2022-11-07T16:59:28.065Z,91.30
2022-11-07T17:02:25.377Z,91.70
2022-11-07T17:05:07.868Z,92.70
2022-11-07T17:07:49.428Z,91.80
2022-11-07T17:10:20.733Z,92.60
2022-11-07T17:12:48.402Z,94.30
2022-11-07T17:15:18.210Z,94.10
2022-11-07T17:17:45.819Z,92.30
2022-11-07T17:20:48.533Z,92.50
2022-11-07T17:23:09.014Z,91.10
2022-11-07T17:25:40.314Z,91.30
2022-11-07T17:28:08.198Z,91.50
2022-11-07T17:30:35.919Z,91.70
2022-11-07T17:33:03.560Z,92.70
2022-11-07T17:35:33.340Z,92.00
2022-11-07T17:38:04.031Z,91.90
2022-11-07T17:40:41.850Z,90.60
2022-11-07T17:43:11.567Z,91.70
2022-11-07T17:45:39.958Z,92.70
2022-11-07T17:48:11.212Z,92.40
2022-11-07T17:50:41.237Z,92.60
2022-11-07T17:53:10.273Z,92.10
2022-11-07T17:55:42.787Z,93.80
2022-11-07T17:58:22.130Z,93.30
2022-11-07T18:00:55.236Z,91.80
2022-11-07T18:03:26.727Z,92.20
2022-11-07T18:05:59.482Z,94.20
2022-11-07T18:08:51.225Z,91.80
2022-11-07T18:11:23.907Z,92.20
2022-11-07T18:13:52.964Z,91.50
2022-11-07T18:16:26.523Z,90.90
2022-11-07T18:18:55.924Z,90.60
2022-11-07T18:21:23.814Z,93.40
2022-11-07T18:23:51.444Z,93.10
2022-11-07T18:26:35.532Z,92.30
2022-11-07T18:29:13.802Z,90.70
2022-11-07T18:31:41.589Z,90.50
2022-11-07T18:34:17.158Z,93.00
2022-11-07T18:36:46.146Z,90.70
2022-11-07T18:39:24.251Z,91.10
2022-11-07T18:41:54.058Z,90.70
2022-11-07T18:44:24.406Z,92.80
2022-11-07T18:46:54.498Z,92.40
2022-11-07T18:49:27.612Z,93.40
2022-11-07T18:51:58.364Z,91.90
2022-11-07T18:54:29.974Z,92.80
2022-11-07T18:56:57.616Z,93.90
2022-11-07T18:59:25.387Z,92.60
2022-11-07T19:01:53.370Z,93.80
2022-11-07T19:04:22.296Z,92.00
2022-11-07T19:06:58.550Z,93.20
2022-11-07T19:09:34.200Z,91.80
2022-11-07T19:12:03.032Z,90.80
2022-11-07T19:14:34.083Z,93.40
2022-11-07T19:17:02.860Z,91.80
2022-11-07T19:19:30.680Z,93.10
2022-11-07T19:22:01.501Z,92.60
2022-11-07T19:24:33.384Z,91.50
2022-11-07T19:27:09.404Z,94.90
2022-11-07T19:29:37.431Z,91.90
2022-11-07T19:32:08.554Z,94.00
2022-11-07T19:34:36.167Z,93.80
2022-11-07T19:37:06.735Z,93.00
2022-11-07T19:39:37.702Z,91.00
2022-11-07T19:42:13.538Z,91.50
2022-11-07T19:44:48.470Z,91.40
2022-11-07T19:47:23.310Z,93.90
2022-11-07T19:49:59.617Z,92.00
2022-11-07T19:52:27.394Z,94.30
2022-11-07T19:54:55.043Z,93.50
2022-11-07T19:57:25.242Z,94.10
2022-11-07T19:59:52.933Z,93.80
2022-11-07T20:02:34.516Z,92.20
2022-11-07T20:05:03.383Z,93.40
2022-11-07T20:07:39.008Z,93.30
2022-11-07T20:10:10.254Z,92.00
2022-11-07T20:12:38.063Z,91.50
2022-11-07T20:15:06.457Z,92.50
2022-11-07T20:17:36.513Z,92.00
2022-11-07T20:20:16.211Z,92.50
2022-11-07T20:22:49.944Z,91.80
2022-11-07T20:25:18.984Z,92.00
2022-11-07T20:27:46.799Z,93.20
2022-11-07T20:30:19.077Z,93.30
2022-11-07T20:32:46.784Z,92.90
2022-11-07T20:35:14.289Z,92.40
2022-11-07T20:37:42.954Z,92.00
2022-11-07T20:40:11.137Z,92.80
2022-11-07T20:43:00.413Z,92.40
2022-11-07T20:45:28.000Z,92.80
2022-11-07T20:47:55.734Z,91.50
2022-11-07T20:50:23.491Z,92.80
2022-11-07T20:53:00.058Z,93.60
2022-11-07T20:55:28.114Z,92.40
2022-11-07T20:57:59.007Z,93.30
2022-11-07T21:00:26.882Z,92.30
2022-11-07T21:02:54.800Z,92.70
2022-11-07T21:05:22.672Z,92.70
2022-11-07T21:07:50.221Z,91.60
2022-11-07T21:10:18.041Z,92.40
2022-11-07T21:12:45.687Z,91.90
2022-11-07T21:15:13.839Z,92.00
2022-11-07T21:17:43.333Z,91.80
2022-11-07T21:20:11.230Z,91.80
2022-11-07T21:22:39.075Z,91.80
2022-11-07T21:25:10.141Z,90.90
2022-11-07T21:27:37.799Z,92.50
2022-11-07T21:30:09.752Z,93.00
2022-11-07T21:32:37.537Z,91.10
2022-11-07T21:35:05.913Z,93.80
2022-11-07T21:37:33.680Z,91.70
2022-11-07T21:40:02.043Z,92.90
2022-11-07T21:42:32.243Z,91.50
2022-11-07T21:45:05.597Z,93.20
2022-11-07T21:47:38.096Z,93.90
2022-11-07T21:50:43.072Z,91.10
2022-11-07T21:53:08.684Z,92.30
2022-11-07T21:55:38.501Z,93.40
2022-11-07T21:58:06.255Z,91.30
2022-11-07T22:00:36.778Z,93.70
2022-11-07T22:03:06.997Z,91.30
2022-11-07T22:05:38.233Z,92.00
2022-11-07T22:08:05.929Z,91.10
2022-11-07T22:10:36.262Z,93.80
2022-11-07T22:13:05.456Z,91.40
2022-11-07T22:15:32.920Z,92.50
2022-11-07T22:18:05.360Z,92.00
2022-11-07T22:20:33.040Z,92.50
2022-11-07T22:23:00.829Z,92.40
2022-11-07T22:25:28.349Z,91.40
2022-11-07T22:28:01.571Z,92.60
2022-11-07T22:30:29.197Z,91.00
2022-11-07T22:32:56.655Z,91.90
2022-11-07T22:35:26.576Z,92.00
2022-11-07T22:37:56.391Z,92.30
2022-11-07T22:40:23.990Z,91.00
2022-11-07T22:42:54.916Z,94.10
2022-11-07T22:45:22.555Z,93.70
2022-11-07T22:47:50.134Z,93.50
2022-11-07T22:50:17.981Z,92.40
2022-11-07T22:52:51.191Z,93.40
2022-11-07T22:55:18.754Z,92.50
2022-11-07T22:57:48.283Z,91.40
2022-11-07T23:00:21.433Z,91.30
2022-11-07T23:02:53.899Z,90.40
2022-11-07T23:05:21.530Z,92.90
2022-11-07T23:07:52.211Z,92.50
2022-11-07T23:10:19.971Z,90.80
2022-11-07T23:12:47.477Z,90.80
2022-11-07T23:15:14.932Z,90.90
2022-11-07T23:17:42.556Z,92.60
2022-11-07T23:20:10.858Z,92.10
2022-11-07T23:22:39.551Z,89.70
2022-11-07T23:25:07.562Z,90.30
2022-11-07T23:27:35.206Z,90.00
2022-11-07T23:30:02.832Z,93.10
2022-11-07T23:32:31.472Z,92.10
2022-11-07T23:34:58.930Z,91.50
2022-11-07T23:37:26.489Z,91.10
2022-11-07T23:39:53.997Z,92.50
2022-11-07T23:42:24.551Z,91.90
2022-11-07T23:45:10.526Z,92.20
2022-11-07T23:47:56.651Z,90.70
2022-11-07T23:50:42.953Z,90.00
2022-11-07T23:53:30.353Z,90.40
2022-11-07T23:55:57.697Z,90.10
2022-11-07T23:58:43.609Z,90.90
